createdAt,value
2019-02-21T00:01:42.432Z,8.84
2019-02-21T00:04:12.905Z,8.81
2019-02-21T00:06:43.423Z,8.83
2019-02-21T00:09:13.760Z,8.85
2019-02-21T00:11:44.780Z,8.86
2019-02-21T00:14:15.208Z,8.85
2019-02-21T00:16:45.649Z,8.86
2019-02-21T00:19:15.967Z,8.86
2019-02-21T00:21:46.500Z,8.87
2019-02-21T00:24:16.816Z,8.85
2019-02-21T00:26:48.260Z,8.88
2019-02-21T00:29:18.705Z,8.87
2019-02-21T00:31:48.974Z,8.87
2019-02-21T00:34:19.831Z,8.87
2019-02-21T00:36:50.113Z,8.88
2019-02-21T00:39:20.519Z,8.89
2019-02-21T00:41:50.865Z,8.89
2019-02-21T00:44:21.372Z,8.90
2019-02-21T00:46:51.798Z,8.94
2019-02-21T00:49:22.027Z,8.95
2019-02-21T00:51:52.461Z,8.94
2019-02-21T00:54:22.860Z,8.95
2019-02-21T00:56:53.200Z,8.95
2019-02-21T00:59:23.612Z,8.92
2019-02-21T01:01:53.880Z,8.92
2019-02-21T01:04:24.321Z,8.91
2019-02-21T01:06:54.994Z,8.89
2019-02-21T01:09:25.655Z,8.89
2019-02-21T01:11:55.948Z,8.89
2019-02-21T01:14:26.404Z,8.88
2019-02-21T01:16:56.740Z,8.83
2019-02-21T01:19:27.091Z,8.83
2019-02-21T01:21:57.378Z,8.80
2019-02-21T01:24:27.979Z,8.81
2019-02-21T01:26:58.306Z,8.82
2019-02-21T01:29:28.596Z,8.85
2019-02-21T01:31:58.996Z,8.85
2019-02-21T01:34:29.283Z,8.85
2019-02-21T01:36:59.707Z,8.85
2019-02-21T01:39:30.032Z,8.87
2019-02-21T01:42:00.254Z,8.86
2019-02-21T01:44:31.192Z,8.84
2019-02-21T01:47:01.482Z,8.84
2019-02-21T01:49:32.713Z,8.84
2019-02-21T01:52:03.357Z,8.84
2019-02-21T01:54:33.660Z,8.83
2019-02-21T01:57:04.005Z,8.85
2019-02-21T01:59:34.287Z,8.87
2019-02-21T02:02:04.661Z,8.87
2019-02-21T02:04:35.087Z,8.88
2019-02-21T02:07:05.434Z,8.90
2019-02-21T02:09:36.073Z,8.88
2019-02-21T02:12:06.394Z,8.87
2019-02-21T02:14:36.664Z,8.90
2019-02-21T02:17:06.949Z,8.90
2019-02-21T02:19:37.227Z,8.91
2019-02-21T02:22:07.651Z,8.92
2019-02-21T02:24:37.914Z,8.93
2019-02-21T02:27:08.177Z,8.91
2019-02-21T02:29:38.428Z,8.90
2019-02-21T02:32:09.766Z,8.88
2019-02-21T02:34:40.601Z,8.82
2019-02-21T02:37:10.827Z,8.79
2019-02-21T02:39:41.052Z,8.75
2019-02-21T02:42:11.632Z,8.65
2019-02-21T02:44:41.924Z,8.60
2019-02-21T02:47:12.170Z,8.61
2019-02-21T02:49:42.469Z,8.54
2019-02-21T02:52:12.737Z,8.51
2019-02-21T02:54:43.047Z,8.48
2019-02-21T02:57:13.268Z,8.46
2019-02-21T02:59:43.526Z,8.43
2019-02-21T03:02:13.744Z,8.39
2019-02-21T03:04:44.021Z,8.37
2019-02-21T03:07:14.619Z,8.37
2019-02-21T03:09:45.155Z,8.33
2019-02-21T03:12:15.411Z,8.32
2019-02-21T03:14:45.630Z,8.26
2019-02-21T03:17:16.377Z,8.22
2019-02-21T03:19:46.648Z,8.19
2019-02-21T03:22:17.325Z,8.18
2019-02-21T03:24:47.648Z,8.13
2019-02-21T03:27:17.875Z,8.10
2019-02-21T03:29:48.233Z,8.10
2019-02-21T03:32:18.964Z,8.10
2019-02-21T03:34:49.834Z,8.09
2019-02-21T03:37:20.118Z,8.05
2019-02-21T03:39:50.469Z,8.04
2019-02-21T03:42:20.791Z,8.06
2019-02-21T03:44:51.585Z,8.04
2019-02-21T03:47:21.978Z,8.05
2019-02-21T03:49:52.430Z,8.03
2019-02-21T03:52:22.869Z,8.02
2019-02-21T03:54:53.135Z,8.02
2019-02-21T03:57:23.435Z,8.03
2019-02-21T03:59:53.937Z,8.06
2019-02-21T04:02:24.207Z,8.07
2019-02-21T04:04:54.687Z,8.10
2019-02-21T04:07:25.547Z,8.15
2019-02-21T04:09:55.982Z,8.17
2019-02-21T04:12:26.476Z,8.22
2019-02-21T04:14:56.736Z,8.26
2019-02-21T04:17:27.331Z,8.29
2019-02-21T04:19:57.683Z,8.32
2019-02-21T04:22:28.105Z,8.35
2019-02-21T04:24:58.327Z,8.36
2019-02-21T04:27:28.611Z,8.37
2019-02-21T04:29:59.313Z,8.35
2019-02-21T04:32:29.599Z,8.33
2019-02-21T04:34:59.844Z,8.32
2019-02-21T04:37:30.673Z,8.33
2019-02-21T04:40:00.894Z,8.35
2019-02-21T04:42:31.193Z,8.35
2019-02-21T04:45:01.647Z,8.37
2019-02-21T04:47:32.103Z,8.32
2019-02-21T04:50:02.725Z,8.32
2019-02-21T04:52:32.945Z,8.30
2019-02-21T04:55:03.167Z,8.24
2019-02-21T04:57:33.457Z,8.25
2019-02-21T05:00:03.755Z,8.20
2019-02-21T05:02:34.050Z,8.19
2019-02-21T05:05:04.363Z,8.17
2019-02-21T05:07:34.609Z,8.14
2019-02-21T05:10:05.050Z,8.15
2019-02-21T05:12:35.783Z,8.14
2019-02-21T05:15:06.101Z,8.10
2019-02-21T05:17:36.998Z,8.10
2019-02-21T05:20:07.995Z,8.10
2019-02-21T05:22:38.654Z,8.10
2019-02-21T05:25:09.148Z,8.09
2019-02-21T05:27:45.343Z,8.05
2019-02-21T05:30:19.411Z,8.05
2019-02-21T05:33:11.644Z,8.01
2019-02-21T05:35:52.537Z,8.02
2019-02-21T05:38:44.901Z,7.99
2019-02-21T05:41:33.085Z,7.97
2019-02-21T05:44:24.655Z,7.96
2019-02-21T05:47:13.871Z,7.96
2019-02-21T05:50:01.814Z,7.97
2019-02-21T05:52:51.031Z,7.98
2019-02-21T05:55:26.831Z,7.92
2019-02-21T05:58:24.165Z,7.91
2019-02-21T06:01:03.918Z,7.94
2019-02-21T06:03:51.529Z,7.93
2019-02-21T06:06:53.111Z,7.97
2019-02-21T06:09:36.092Z,8.00
2019-02-21T06:12:15.471Z,8.00
2019-02-21T06:14:54.878Z,8.01
2019-02-21T06:17:40.850Z,8.05
2019-02-21T06:20:33.900Z,8.05
2019-02-21T06:23:26.696Z,8.05
2019-02-21T06:26:19.013Z,8.06
2019-02-21T06:29:02.650Z,8.08
2019-02-21T06:31:32.991Z,8.09
2019-02-21T06:34:03.214Z,8.11
2019-02-21T06:36:34.812Z,8.14
2019-02-21T06:39:06.368Z,8.19
2019-02-21T06:41:36.971Z,8.18
2019-02-21T06:44:07.600Z,8.15
2019-02-21T06:46:37.895Z,8.17
2019-02-21T06:49:08.173Z,8.20
2019-02-21T06:51:38.899Z,8.20
2019-02-21T06:54:09.551Z,8.20
2019-02-21T06:56:39.875Z,8.22
2019-02-21T06:59:10.161Z,8.24
2019-02-21T07:01:40.657Z,8.28
2019-02-21T07:04:11.144Z,8.35
2019-02-21T07:06:41.593Z,8.36
2019-02-21T07:09:13.647Z,8.40
2019-02-21T07:11:45.954Z,8.38
2019-02-21T07:14:17.781Z,8.36
2019-02-21T07:16:50.547Z,8.37
2019-02-21T07:19:22.513Z,8.35
2019-02-21T07:21:53.856Z,8.34
2019-02-21T07:24:26.832Z,8.35
2019-02-21T07:26:59.214Z,8.33
2019-02-21T07:29:31.579Z,8.34
2019-02-21T07:32:02.765Z,8.35
2019-02-21T07:34:33.968Z,8.33
2019-02-21T07:37:05.780Z,8.31
2019-02-21T07:39:39.097Z,8.28
2019-02-21T07:42:11.210Z,8.30
2019-02-21T07:44:45.274Z,8.27
2019-02-21T07:47:17.427Z,8.28
2019-02-21T07:49:49.698Z,8.23
2019-02-21T07:52:22.819Z,8.21
2019-02-21T07:55:01.774Z,8.16
2019-02-21T07:57:28.592Z,8.18
2019-02-21T08:00:00.876Z,8.22
2019-02-21T08:02:31.630Z,8.22
2019-02-21T08:05:03.710Z,8.22
2019-02-21T08:07:35.837Z,8.23
2019-02-21T08:10:08.047Z,8.22
2019-02-21T08:12:40.670Z,8.20
2019-02-21T08:15:12.267Z,8.21
2019-02-21T08:17:44.132Z,8.17
2019-02-21T08:20:15.695Z,8.18
2019-02-21T08:22:47.819Z,8.22
2019-02-21T08:25:20.115Z,8.25
2019-02-21T08:27:51.666Z,8.24
2019-02-21T08:30:23.214Z,8.26
2019-02-21T08:33:13.997Z,8.28
2019-02-21T08:35:46.013Z,8.29
2019-02-21T08:38:18.190Z,8.28
2019-02-21T08:40:53.099Z,8.35
2019-02-21T08:43:23.994Z,8.42
2019-02-21T08:45:57.750Z,8.45
2019-02-21T08:48:30.533Z,8.42
2019-02-21T08:51:06.014Z,8.41
2019-02-21T08:53:38.269Z,8.34
2019-02-21T08:56:10.398Z,8.26
2019-02-21T08:58:42.520Z,8.28
2019-02-21T09:01:14.854Z,8.38
2019-02-21T09:03:45.234Z,8.52
2019-02-21T09:06:15.410Z,8.59
2019-02-21T09:08:45.679Z,8.59
2019-02-21T09:11:15.982Z,8.62
2019-02-21T09:13:46.454Z,8.63
2019-02-21T09:16:17.824Z,8.69
2019-02-21T09:18:48.538Z,8.73
2019-02-21T09:21:19.005Z,8.75
2019-02-21T09:23:49.316Z,8.82
2019-02-21T09:26:21.689Z,8.89
2019-02-21T09:28:52.002Z,8.87
2019-02-21T09:31:22.239Z,8.82
2019-02-21T09:33:52.745Z,8.80
2019-02-21T09:36:23.277Z,8.79
2019-02-21T09:38:53.700Z,8.80
2019-02-21T09:41:24.125Z,8.84
2019-02-21T09:43:54.626Z,8.86
2019-02-21T09:46:24.876Z,8.87
2019-02-21T09:48:55.202Z,8.89
2019-02-21T09:51:25.807Z,8.88
2019-02-21T09:53:56.159Z,8.95
2019-02-21T09:56:30.433Z,9.01
2019-02-21T09:58:58.469Z,9.06
2019-02-21T10:01:29.433Z,9.09
2019-02-21T10:03:59.856Z,9.02
2019-02-21T10:06:30.365Z,9.00
2019-02-21T10:09:00.674Z,8.96
2019-02-21T10:11:31.471Z,8.97
2019-02-21T10:14:01.978Z,8.94
2019-02-21T10:16:32.699Z,8.93
2019-02-21T10:19:03.652Z,8.89
2019-02-21T10:21:33.960Z,8.88
2019-02-21T10:24:04.322Z,8.87
2019-02-21T10:26:34.933Z,8.83
2019-02-21T10:29:05.503Z,8.86
2019-02-21T10:31:36.111Z,8.87
2019-02-21T10:34:07.274Z,8.90
2019-02-21T10:36:37.828Z,8.88
2019-02-21T10:39:08.131Z,8.93
2019-02-21T10:41:39.450Z,8.99
2019-02-21T10:44:09.788Z,9.03
2019-02-21T10:46:40.042Z,9.06
2019-02-21T10:49:10.357Z,9.00
2019-02-21T10:51:40.888Z,9.00
2019-02-21T10:54:11.140Z,9.03
2019-02-21T10:56:41.486Z,9.05
2019-02-21T10:59:11.724Z,9.07
2019-02-21T11:01:42.247Z,9.03
2019-02-21T11:04:12.965Z,9.02
2019-02-21T11:06:43.375Z,9.01
2019-02-21T11:09:21.206Z,9.01
2019-02-21T11:11:51.534Z,9.05
2019-02-21T11:14:21.768Z,9.09
2019-02-21T11:16:53.350Z,9.14
2019-02-21T11:19:23.544Z,9.12
2019-02-21T11:21:53.758Z,9.14
2019-02-21T11:24:24.609Z,9.18
2019-02-21T11:26:55.337Z,9.14
2019-02-21T11:29:25.835Z,9.16
2019-02-21T11:31:56.163Z,9.19
2019-02-21T11:34:26.434Z,9.21
2019-02-21T11:36:56.941Z,9.17
2019-02-21T11:39:27.326Z,9.17
2019-02-21T11:42:00.162Z,9.22
2019-02-21T11:44:30.424Z,9.25
2019-02-21T11:47:00.932Z,9.35
2019-02-21T11:49:31.295Z,9.30
2019-02-21T11:52:09.914Z,9.26
2019-02-21T11:54:34.098Z,9.23
2019-02-21T11:57:04.757Z,9.25
2019-02-21T11:59:35.044Z,9.22
2019-02-21T12:02:05.502Z,9.22
2019-02-21T12:04:35.855Z,9.15
2019-02-21T12:07:06.348Z,9.08
2019-02-21T12:09:36.582Z,9.08
2019-02-21T12:12:06.854Z,9.10
2019-02-21T12:14:37.129Z,9.19
2019-02-21T12:17:07.400Z,9.15
2019-02-21T12:19:37.980Z,9.02
2019-02-21T12:22:08.222Z,8.96
2019-02-21T12:24:38.473Z,8.87
2019-02-21T12:27:09.413Z,8.83
2019-02-21T12:29:40.528Z,8.81
2019-02-21T12:32:10.771Z,8.80
2019-02-21T12:34:41.520Z,8.77
2019-02-21T12:37:11.787Z,8.78
2019-02-21T12:39:42.337Z,8.78
2019-02-21T12:42:13.477Z,8.82
2019-02-21T12:44:43.780Z,8.84
2019-02-21T12:47:14.060Z,8.81
2019-02-21T12:49:44.826Z,8.77
2019-02-21T12:52:15.496Z,8.76
2019-02-21T12:54:46.064Z,8.78
2019-02-21T12:57:16.487Z,8.75
2019-02-21T12:59:46.774Z,8.72
2019-02-21T13:02:17.100Z,8.71
2019-02-21T13:04:47.789Z,8.68
2019-02-21T13:07:18.266Z,8.74
2019-02-21T13:09:48.609Z,8.77
2019-02-21T13:12:18.945Z,8.82
2019-02-21T13:14:49.521Z,8.80
2019-02-21T13:17:19.934Z,8.75
2019-02-21T13:19:50.361Z,8.77
2019-02-21T13:22:20.580Z,8.79
2019-02-21T13:24:51.211Z,8.81
2019-02-21T13:27:21.772Z,8.83
2019-02-21T13:29:54.559Z,8.84
2019-02-21T13:32:24.027Z,8.86
2019-02-21T13:34:55.148Z,8.89
2019-02-21T13:37:28.650Z,8.87
2019-02-21T13:39:57.518Z,8.82
2019-02-21T13:42:28.840Z,8.86
2019-02-21T13:44:59.223Z,8.87
2019-02-21T13:47:30.311Z,8.90
2019-02-21T13:50:01.750Z,8.94
2019-02-21T13:52:32.824Z,8.99
2019-02-21T13:55:03.618Z,9.01
2019-02-21T13:57:33.969Z,9.01
2019-02-21T14:00:04.394Z,8.98
2019-02-21T14:02:34.621Z,9.01
2019-02-21T14:05:05.466Z,9.01
2019-02-21T14:07:37.306Z,9.01
2019-02-21T14:10:08.522Z,9.02
2019-02-21T14:12:39.151Z,8.98
2019-02-21T14:15:17.509Z,8.93
2019-02-21T14:17:48.093Z,8.93
2019-02-21T14:20:18.976Z,8.92
2019-02-21T14:22:49.624Z,8.87
2019-02-21T14:25:20.136Z,8.82
2019-02-21T14:27:52.189Z,8.81
2019-02-21T14:30:22.593Z,8.82
2019-02-21T14:32:53.206Z,8.81
2019-02-21T14:35:23.475Z,8.80
2019-02-21T14:37:53.819Z,8.78
2019-02-21T14:40:24.592Z,8.78
2019-02-21T14:42:54.895Z,8.78
2019-02-21T14:45:25.180Z,8.77
2019-02-21T14:47:55.851Z,8.75
2019-02-21T14:50:26.456Z,8.74
2019-02-21T14:52:57.444Z,8.67
2019-02-21T14:55:30.119Z,8.67
2019-02-21T14:58:00.240Z,8.67
2019-02-21T15:00:30.679Z,8.63
2019-02-21T15:03:01.333Z,8.65
2019-02-21T15:05:31.852Z,8.64
2019-02-21T15:08:02.191Z,8.61
2019-02-21T15:10:32.552Z,8.62
2019-02-21T15:13:02.804Z,8.62
2019-02-21T15:15:33.103Z,8.57
2019-02-21T15:18:07.656Z,8.54
2019-02-21T15:20:37.291Z,8.45
2019-02-21T15:23:07.683Z,8.44
2019-02-21T15:25:37.976Z,8.43
2019-02-21T15:28:08.438Z,8.44
2019-02-21T15:30:38.798Z,8.43
2019-02-21T15:33:09.543Z,8.40
2019-02-21T15:35:39.797Z,8.41
2019-02-21T15:38:19.592Z,8.40
2019-02-21T15:40:43.391Z,8.42
2019-02-21T15:43:13.812Z,8.44
2019-02-21T15:45:44.077Z,8.42
2019-02-21T15:48:15.368Z,8.42
2019-02-21T15:50:45.799Z,8.43
2019-02-21T15:53:16.090Z,8.46
2019-02-21T15:55:46.573Z,8.48
2019-02-21T15:58:16.912Z,8.52
2019-02-21T16:00:47.257Z,8.48
2019-02-21T16:03:17.929Z,8.49
2019-02-21T16:05:48.194Z,8.53
2019-02-21T16:08:18.449Z,8.55
2019-02-21T16:10:48.749Z,8.52
2019-02-21T16:13:19.453Z,8.56
2019-02-21T16:15:49.987Z,8.51
2019-02-21T16:18:20.587Z,8.50
2019-02-21T16:20:52.892Z,8.47
2019-02-21T16:23:24.727Z,8.47
2019-02-21T16:25:55.162Z,8.47
2019-02-21T16:28:27.342Z,8.49
2019-02-21T16:30:59.635Z,8.49
2019-02-21T16:33:31.540Z,8.48
2019-02-21T16:36:02.486Z,8.46
2019-02-21T16:38:33.470Z,8.43
2019-02-21T16:41:04.403Z,8.42
2019-02-21T16:43:36.752Z,8.39
2019-02-21T16:46:08.242Z,8.37
2019-02-21T16:48:39.081Z,8.39
2019-02-21T16:51:10.209Z,8.41
2019-02-21T16:53:40.486Z,8.39
2019-02-21T16:56:13.359Z,8.45
2019-02-21T16:58:43.357Z,8.47
2019-02-21T17:01:14.298Z,8.45
2019-02-21T17:03:45.537Z,8.44
2019-02-21T17:06:16.001Z,8.44
2019-02-21T17:08:47.359Z,8.44
2019-02-21T17:11:17.911Z,8.43
2019-02-21T17:13:48.811Z,8.40
2019-02-21T17:16:21.229Z,8.41
2019-02-21T17:18:51.867Z,8.41
2019-02-21T17:21:23.079Z,8.41
2019-02-21T17:23:53.742Z,8.40
2019-02-21T17:26:25.055Z,8.39
2019-02-21T17:28:56.438Z,8.40
2019-02-21T17:31:27.468Z,8.38
2019-02-21T17:33:58.502Z,8.40
2019-02-21T17:36:29.828Z,8.43
2019-02-21T17:39:00.178Z,8.42
2019-02-21T17:41:30.974Z,8.36
2019-02-21T17:44:01.397Z,8.32
2019-02-21T17:46:32.540Z,8.32
2019-02-21T17:49:03.022Z,8.34
2019-02-21T17:51:34.003Z,8.34
2019-02-21T17:54:04.262Z,8.34
2019-02-21T17:56:34.462Z,8.36
2019-02-21T17:59:04.878Z,8.37
2019-02-21T18:01:35.369Z,8.34
2019-02-21T18:04:05.864Z,8.30
2019-02-21T18:06:36.960Z,8.32
2019-02-21T18:09:08.393Z,8.32
2019-02-21T18:11:41.803Z,8.30
2019-02-21T18:14:14.562Z,8.27
2019-02-21T18:16:44.838Z,8.28
2019-02-21T18:19:17.307Z,8.27
2019-02-21T18:21:48.682Z,8.29
2019-02-21T18:24:18.824Z,8.28
2019-02-21T18:26:49.440Z,8.23
2019-02-21T18:29:21.061Z,8.25
2019-02-21T18:31:51.890Z,8.23
2019-02-21T18:34:22.428Z,8.27
2019-02-21T18:36:53.347Z,8.28
2019-02-21T18:39:24.277Z,8.29
2019-02-21T18:41:55.101Z,8.27
2019-02-21T18:44:25.515Z,8.27
2019-02-21T18:46:55.872Z,8.29
2019-02-21T18:49:26.118Z,8.24
2019-02-21T18:51:56.806Z,8.24
2019-02-21T18:54:27.216Z,8.23
2019-02-21T18:56:57.989Z,8.17
2019-02-21T18:59:31.731Z,8.11
2019-02-21T19:02:01.498Z,8.10
2019-02-21T19:04:31.727Z,8.08
2019-02-21T19:07:02.866Z,8.05
2019-02-21T19:09:33.295Z,8.05
2019-02-21T19:12:04.690Z,8.01
2019-02-21T19:14:35.732Z,8.00
2019-02-21T19:17:05.948Z,7.98
2019-02-21T19:19:36.276Z,7.98
2019-02-21T19:22:06.670Z,7.97
2019-02-21T19:24:37.218Z,7.94
2019-02-21T19:27:07.531Z,7.99
2019-02-21T19:29:38.578Z,8.01
2019-02-21T19:32:08.931Z,8.02
2019-02-21T19:34:41.843Z,8.02
2019-02-21T19:37:12.098Z,7.98
2019-02-21T19:39:42.597Z,7.97
2019-02-21T19:42:13.240Z,7.99
2019-02-21T19:44:43.486Z,8.01
2019-02-21T19:47:13.717Z,8.04
2019-02-21T19:49:44.382Z,8.01
2019-02-21T19:52:15.182Z,8.02
2019-02-21T19:54:45.453Z,8.03
2019-02-21T19:57:15.734Z,8.06
2019-02-21T19:59:46.741Z,8.08
2019-02-21T20:02:17.699Z,8.07
2019-02-21T20:04:47.943Z,8.09
2019-02-21T20:07:23.986Z,8.12
2019-02-21T20:09:57.585Z,8.11
2019-02-21T20:12:31.999Z,8.06
2019-02-21T20:15:03.237Z,8.14
2019-02-21T20:17:34.064Z,8.15
2019-02-21T20:20:09.777Z,8.14
2019-02-21T20:22:41.593Z,8.13
2019-02-21T20:25:12.317Z,8.15
2019-02-21T20:27:42.571Z,8.17
2019-02-21T20:30:14.529Z,8.09
2019-02-21T20:32:44.969Z,8.09
2019-02-21T20:35:15.845Z,8.10
2019-02-21T20:37:46.757Z,8.10
2019-02-21T20:40:18.111Z,8.13
2019-02-21T20:42:48.384Z,8.11
2019-02-21T20:45:18.784Z,8.10
2019-02-21T20:47:49.239Z,8.12
2019-02-21T20:50:20.382Z,8.10
2019-02-21T20:52:50.851Z,8.18
2019-02-21T20:55:21.251Z,8.07
2019-02-21T20:57:51.995Z,8.19
2019-02-21T21:00:22.878Z,8.15
2019-02-21T21:02:53.613Z,8.26
2019-02-21T21:05:23.922Z,8.22
2019-02-21T21:07:54.449Z,8.29
2019-02-21T21:10:24.940Z,8.33
2019-02-21T21:12:58.335Z,8.29
2019-02-21T21:15:28.629Z,8.21
2019-02-21T21:17:59.054Z,8.26
2019-02-21T21:20:29.620Z,8.20
2019-02-21T21:23:04.188Z,8.22
2019-02-21T21:25:35.117Z,8.28
2019-02-21T21:28:05.413Z,8.26
2019-02-21T21:30:35.907Z,8.30
2019-02-21T21:33:07.946Z,8.31
2019-02-21T21:35:40.526Z,8.34
2019-02-21T21:38:10.764Z,8.36
2019-02-21T21:40:41.675Z,8.33
2019-02-21T21:43:12.921Z,8.35
2019-02-21T21:45:44.071Z,8.40
2019-02-21T21:48:14.490Z,8.36
2019-02-21T21:50:46.165Z,8.38
2019-02-21T21:53:16.466Z,8.39
2019-02-21T21:55:46.893Z,8.36
2019-02-21T21:58:17.176Z,8.37
2019-02-21T22:00:47.419Z,8.36
2019-02-21T22:03:17.981Z,8.41
2019-02-21T22:05:48.272Z,8.39
2019-02-21T22:08:18.725Z,8.38
2019-02-21T22:10:49.260Z,8.36
2019-02-21T22:13:19.612Z,8.36
2019-02-21T22:15:49.958Z,8.38
2019-02-21T22:18:21.084Z,8.33
2019-02-21T22:20:51.879Z,8.36
2019-02-21T22:23:22.208Z,8.37
2019-02-21T22:25:52.791Z,8.24
2019-02-21T22:28:23.056Z,8.26
2019-02-21T22:30:53.955Z,8.19
2019-02-21T22:33:26.378Z,8.23
2019-02-21T22:35:57.740Z,8.26
2019-02-21T22:38:27.993Z,8.24
2019-02-21T22:40:58.306Z,8.21
2019-02-21T22:43:28.815Z,8.23
2019-02-21T22:45:59.265Z,8.22
2019-02-21T22:48:29.828Z,8.22
2019-02-21T22:51:00.594Z,8.23
2019-02-21T22:53:30.838Z,8.21
2019-02-21T22:56:01.180Z,8.14
2019-02-21T22:58:31.791Z,8.17
2019-02-21T23:01:36.856Z,8.09
2019-02-21T23:04:27.926Z,8.16
2019-02-21T23:07:24.259Z,8.15
2019-02-21T23:09:54.537Z,8.13
2019-02-21T23:12:24.924Z,8.04
2019-02-21T23:14:55.242Z,8.07
2019-02-21T23:17:25.771Z,8.11
2019-02-21T23:19:56.568Z,8.10
2019-02-21T23:22:27.248Z,8.11
2019-02-21T23:24:57.546Z,8.15
2019-02-21T23:27:28.043Z,8.20
2019-02-21T23:29:58.774Z,8.20
2019-02-21T23:32:29.203Z,8.17
2019-02-21T23:35:00.450Z,8.16
2019-02-21T23:37:30.775Z,8.06
2019-02-21T23:40:01.270Z,8.03
2019-02-21T23:42:31.822Z,8.06
2019-02-21T23:45:02.150Z,8.09
2019-02-21T23:47:32.413Z,8.01
2019-02-21T23:50:02.964Z,8.04
2019-02-21T23:52:33.589Z,8.04
2019-02-21T23:55:03.969Z,8.06
2019-02-21T23:57:34.322Z,8.05
